sensor_id;sensor_type;location;lat;lon;timestamp;P1;durP1;ratioP1;P2;durP2;ratioP2
62056;SDS011;48016;50.284;18.860;2023-12-14T00:01:28;72.70;;;30.60;;
62056;SDS011;48016;50.284;18.860;2023-12-14T00:03:55;69.40;;;30.50;;
62056;SDS011;48016;50.284;18.860;2023-12-14T00:06:21;68.70;;;29.70;;
62056;SDS011;48016;50.284;18.860;2023-12-14T00:08:48;62.60;;;28.70;;
62056;SDS011;48016;50.284;18.860;2023-12-14T00:11:15;61.30;;;29.90;;
62056;SDS011;48016;50.284;18.860;2023-12-14T00:13:41;63.50;;;26.70;;
62056;SDS011;48016;50.284;18.860;2023-12-14T00:16:08;56.00;;;26.60;;
62056;SDS011;48016;50.284;18.860;2023-12-14T00:18:35;62.90;;;27.30;;
62056;SDS011;48016;50.284;18.860;2023-12-14T00:21:03;56.20;;;25.60;;
62056;SDS011;48016;50.284;18.860;2023-12-14T00:23:30;56.10;;;22.30;;
62056;SDS011;48016;50.284;18.860;2023-12-14T00:25:56;54.70;;;23.20;;
62056;SDS011;48016;50.284;18.860;2023-12-14T00:28:23;57.30;;;24.10;;
62056;SDS011;48016;50.284;18.860;2023-12-14T00:30:49;47.50;;;21.90;;
62056;SDS011;48016;50.284;18.860;2023-12-14T00:33:16;44.90;;;21.00;;
62056;SDS011;48016;50.284;18.860;2023-12-14T00:35:43;44.70;;;21.00;;
62056;SDS011;48016;50.284;18.860;2023-12-14T00:38:09;47.00;;;22.30;;
62056;SDS011;48016;50.284;18.860;2023-12-14T00:40:36;51.40;;;24.80;;
62056;SDS011;48016;50.284;18.860;2023-12-14T00:43:02;46.30;;;22.30;;
62056;SDS011;48016;50.284;18.860;2023-12-14T00:45:29;46.30;;;22.30;;
62056;SDS011;48016;50.284;18.860;2023-12-14T00:47:56;48.80;;;22.50;;
62056;SDS011;48016;50.284;18.860;2023-12-14T00:50:22;40.00;;;22.00;;
62056;SDS011;48016;50.284;18.860;2023-12-14T00:52:49;41.70;;;20.20;;
62056;SDS011;48016;50.284;18.860;2023-12-14T00:55:16;40.50;;;20.60;;
62056;SDS011;48016;50.284;18.860;2023-12-14T00:57:42;40.30;;;21.20;;
62056;SDS011;48016;50.284;18.860;2023-12-14T01:00:09;45.00;;;21.50;;
62056;SDS011;48016;50.284;18.860;2023-12-14T01:05:03;41.10;;;20.10;;
62056;SDS011;48016;50.284;18.860;2023-12-14T01:07:30;37.70;;;19.00;;
62056;SDS011;48016;50.284;18.860;2023-12-14T01:09:57;40.50;;;18.70;;
62056;SDS011;48016;50.284;18.860;2023-12-14T01:12:23;44.10;;;20.60;;
62056;SDS011;48016;50.284;18.860;2023-12-14T01:14:50;43.40;;;22.50;;
62056;SDS011;48016;50.284;18.860;2023-12-14T01:17:17;49.50;;;24.50;;
62056;SDS011;48016;50.284;18.860;2023-12-14T01:19:43;51.30;;;24.30;;
62056;SDS011;48016;50.284;18.860;2023-12-14T01:22:10;49.10;;;25.00;;
62056;SDS011;48016;50.284;18.860;2023-12-14T01:24:37;55.30;;;25.80;;
62056;SDS011;48016;50.284;18.860;2023-12-14T01:27:03;47.70;;;25.00;;
62056;SDS011;48016;50.284;18.860;2023-12-14T01:29:30;52.00;;;24.90;;
62056;SDS011;48016;50.284;18.860;2023-12-14T01:31:57;50.30;;;25.60;;
62056;SDS011;48016;50.284;18.860;2023-12-14T01:34:23;53.30;;;26.90;;
62056;SDS011;48016;50.284;18.860;2023-12-14T01:36:50;52.60;;;26.40;;
62056;SDS011;48016;50.284;18.860;2023-12-14T01:39:16;59.30;;;27.70;;
62056;SDS011;48016;50.284;18.860;2023-12-14T01:41:43;61.60;;;28.20;;
62056;SDS011;48016;50.284;18.860;2023-12-14T01:44:09;62.60;;;29.60;;
62056;SDS011;48016;50.284;18.860;2023-12-14T01:46:36;55.10;;;27.80;;
62056;SDS011;48016;50.284;18.860;2023-12-14T01:49:02;57.40;;;28.80;;
62056;SDS011;48016;50.284;18.860;2023-12-14T01:51:29;59.30;;;29.50;;
62056;SDS011;48016;50.284;18.860;2023-12-14T01:53:55;61.80;;;28.30;;
62056;SDS011;48016;50.284;18.860;2023-12-14T01:56:22;57.30;;;29.10;;
62056;SDS011;48016;50.284;18.860;2023-12-14T01:58:49;59.10;;;26.90;;
62056;SDS011;48016;50.284;18.860;2023-12-14T02:01:21;57.90;;;27.30;;
62056;SDS011;48016;50.284;18.860;2023-12-14T02:04:05;60.90;;;26.60;;
62056;SDS011;48016;50.284;18.860;2023-12-14T02:06:33;55.40;;;26.90;;
62056;SDS011;48016;50.284;18.860;2023-12-14T02:09:00;62.70;;;27.50;;
62056;SDS011;48016;50.284;18.860;2023-12-14T02:11:26;51.60;;;25.60;;
62056;SDS011;48016;50.284;18.860;2023-12-14T02:13:53;54.10;;;26.70;;
62056;SDS011;48016;50.284;18.860;2023-12-14T02:16:19;44.10;;;22.20;;
62056;SDS011;48016;50.284;18.860;2023-12-14T02:18:46;47.30;;;23.60;;
62056;SDS011;48016;50.284;18.860;2023-12-14T02:21:13;44.00;;;20.40;;
62056;SDS011;48016;50.284;18.860;2023-12-14T02:23:46;39.30;;;19.50;;
62056;SDS011;48016;50.284;18.860;2023-12-14T02:26:13;38.70;;;18.10;;
62056;SDS011;48016;50.284;18.860;2023-12-14T02:28:40;41.90;;;20.00;;
62056;SDS011;48016;50.284;18.860;2023-12-14T02:31:07;37.00;;;18.30;;
62056;SDS011;48016;50.284;18.860;2023-12-14T02:33:33;43.00;;;18.90;;
62056;SDS011;48016;50.284;18.860;2023-12-14T02:36:00;35.80;;;18.00;;
62056;SDS011;48016;50.284;18.860;2023-12-14T02:38:26;37.30;;;18.20;;
62056;SDS011;48016;50.284;18.860;2023-12-14T02:40:53;41.90;;;18.40;;
62056;SDS011;48016;50.284;18.860;2023-12-14T02:43:20;41.30;;;19.40;;
62056;SDS011;48016;50.284;18.860;2023-12-14T02:45:46;43.10;;;19.70;;
62056;SDS011;48016;50.284;18.860;2023-12-14T02:48:13;35.60;;;16.20;;
62056;SDS011;48016;50.284;18.860;2023-12-14T02:50:39;37.50;;;16.90;;
62056;SDS011;48016;50.284;18.860;2023-12-14T02:53:06;36.50;;;18.70;;
62056;SDS011;48016;50.284;18.860;2023-12-14T02:55:32;40.50;;;18.70;;
62056;SDS011;48016;50.284;18.860;2023-12-14T02:57:59;41.40;;;20.90;;
62056;SDS011;48016;50.284;18.860;2023-12-14T03:00:25;43.00;;;19.90;;
62056;SDS011;48016;50.284;18.860;2023-12-14T03:02:52;38.70;;;20.20;;
62056;SDS011;48016;50.284;18.860;2023-12-14T03:05:19;40.00;;;21.60;;
62056;SDS011;48016;50.284;18.860;2023-12-14T03:07:45;39.40;;;19.60;;
62056;SDS011;48016;50.284;18.860;2023-12-14T03:10:12;46.40;;;21.60;;
62056;SDS011;48016;50.284;18.860;2023-12-14T03:12:39;40.70;;;20.90;;
62056;SDS011;48016;50.284;18.860;2023-12-14T03:15:05;37.70;;;18.80;;
62056;SDS011;48016;50.284;18.860;2023-12-14T03:17:32;42.10;;;18.80;;
62056;SDS011;48016;50.284;18.860;2023-12-14T03:19:59;39.60;;;19.30;;
62056;SDS011;48016;50.284;18.860;2023-12-14T03:22:25;39.50;;;19.20;;
62056;SDS011;48016;50.284;18.860;2023-12-14T03:24:52;45.00;;;20.50;;
62056;SDS011;48016;50.284;18.860;2023-12-14T03:27:19;41.40;;;20.60;;
62056;SDS011;48016;50.284;18.860;2023-12-14T03:29:46;44.50;;;20.30;;
62056;SDS011;48016;50.284;18.860;2023-12-14T03:32:12;42.30;;;20.60;;
62056;SDS011;48016;50.284;18.860;2023-12-14T03:34:39;44.70;;;22.20;;
62056;SDS011;48016;50.284;18.860;2023-12-14T03:37:07;54.00;;;26.50;;
62056;SDS011;48016;50.284;18.860;2023-12-14T03:39:33;54.80;;;26.20;;
62056;SDS011;48016;50.284;18.860;2023-12-14T03:42:00;61.50;;;29.80;;
62056;SDS011;48016;50.284;18.860;2023-12-14T03:44:26;62.80;;;28.00;;
62056;SDS011;48016;50.284;18.860;2023-12-14T03:46:53;62.00;;;28.40;;
62056;SDS011;48016;50.284;18.860;2023-12-14T03:49:20;62.40;;;30.30;;
62056;SDS011;48016;50.284;18.860;2023-12-14T03:51:47;68.20;;;29.20;;
62056;SDS011;48016;50.284;18.860;2023-12-14T03:54:13;58.70;;;29.50;;
62056;SDS011;48016;50.284;18.860;2023-12-14T03:56:40;61.10;;;28.70;;
62056;SDS011;48016;50.284;18.860;2023-12-14T03:59:06;72.20;;;32.10;;
62056;SDS011;48016;50.284;18.860;2023-12-14T04:01:35;68.50;;;30.50;;
62056;SDS011;48016;50.284;18.860;2023-12-14T04:04:05;64.00;;;29.60;;
62056;SDS011;48016;50.284;18.860;2023-12-14T04:06:35;65.10;;;31.20;;
62056;SDS011;48016;50.284;18.860;2023-12-14T04:09:01;68.00;;;31.00;;
62056;SDS011;48016;50.284;18.860;2023-12-14T04:11:28;62.00;;;28.80;;
62056;SDS011;48016;50.284;18.860;2023-12-14T04:13:55;68.00;;;28.90;;
62056;SDS011;48016;50.284;18.860;2023-12-14T04:16:22;64.20;;;28.80;;
62056;SDS011;48016;50.284;18.860;2023-12-14T04:18:49;62.10;;;27.30;;
62056;SDS011;48016;50.284;18.860;2023-12-14T04:21:15;60.40;;;27.20;;
62056;SDS011;48016;50.284;18.860;2023-12-14T04:23:42;61.80;;;27.90;;
62056;SDS011;48016;50.284;18.860;2023-12-14T04:26:09;61.10;;;26.90;;
62056;SDS011;48016;50.284;18.860;2023-12-14T04:28:36;67.40;;;29.30;;
62056;SDS011;48016;50.284;18.860;2023-12-14T04:31:02;64.70;;;28.60;;
62056;SDS011;48016;50.284;18.860;2023-12-14T04:33:29;68.00;;;28.70;;
62056;SDS011;48016;50.284;18.860;2023-12-14T04:35:56;66.70;;;27.00;;
62056;SDS011;48016;50.284;18.860;2023-12-14T04:38:22;60.70;;;26.00;;
62056;SDS011;48016;50.284;18.860;2023-12-14T04:40:49;66.50;;;27.40;;
62056;SDS011;48016;50.284;18.860;2023-12-14T04:43:15;65.00;;;28.20;;
62056;SDS011;48016;50.284;18.860;2023-12-14T04:45:42;65.00;;;26.20;;
62056;SDS011;48016;50.284;18.860;2023-12-14T04:48:09;64.00;;;28.60;;
62056;SDS011;48016;50.284;18.860;2023-12-14T04:50:35;64.30;;;25.90;;
62056;SDS011;48016;50.284;18.860;2023-12-14T04:53:02;66.80;;;25.60;;
62056;SDS011;48016;50.284;18.860;2023-12-14T04:55:28;72.50;;;27.80;;
62056;SDS011;48016;50.284;18.860;2023-12-14T04:57:55;66.10;;;26.80;;
62056;SDS011;48016;50.284;18.860;2023-12-14T05:00:22;67.60;;;26.70;;
62056;SDS011;48016;50.284;18.860;2023-12-14T05:02:48;60.50;;;24.90;;
62056;SDS011;48016;50.284;18.860;2023-12-14T05:05:15;65.00;;;24.80;;
62056;SDS011;48016;50.284;18.860;2023-12-14T05:07:42;71.20;;;25.10;;
62056;SDS011;48016;50.284;18.860;2023-12-14T05:10:08;64.80;;;24.50;;
62056;SDS011;48016;50.284;18.860;2023-12-14T05:15:04;70.80;;;26.00;;
62056;SDS011;48016;50.284;18.860;2023-12-14T05:17:31;65.30;;;26.30;;
62056;SDS011;48016;50.284;18.860;2023-12-14T05:19:58;60.70;;;22.90;;
62056;SDS011;48016;50.284;18.860;2023-12-14T05:22:25;57.40;;;21.90;;
62056;SDS011;48016;50.284;18.860;2023-12-14T05:24:51;58.90;;;23.30;;
62056;SDS011;48016;50.284;18.860;2023-12-14T05:27:18;56.10;;;22.70;;
62056;SDS011;48016;50.284;18.860;2023-12-14T05:29:45;54.30;;;21.50;;
62056;SDS011;48016;50.284;18.860;2023-12-14T05:32:11;54.60;;;21.00;;
62056;SDS011;48016;50.284;18.860;2023-12-14T05:34:38;50.20;;;21.20;;
62056;SDS011;48016;50.284;18.860;2023-12-14T05:37:05;54.30;;;20.50;;
62056;SDS011;48016;50.284;18.860;2023-12-14T05:39:31;47.10;;;21.50;;
62056;SDS011;48016;50.284;18.860;2023-12-14T05:41:58;44.50;;;20.00;;
62056;SDS011;48016;50.284;18.860;2023-12-14T05:44:25;43.40;;;18.90;;
62056;SDS011;48016;50.284;18.860;2023-12-14T05:46:52;46.80;;;19.70;;
62056;SDS011;48016;50.284;18.860;2023-12-14T05:49:18;47.30;;;21.00;;
62056;SDS011;48016;50.284;18.860;2023-12-14T05:51:45;44.90;;;19.30;;
62056;SDS011;48016;50.284;18.860;2023-12-14T05:54:12;45.50;;;21.50;;
62056;SDS011;48016;50.284;18.860;2023-12-14T05:56:38;46.20;;;20.60;;
62056;SDS011;48016;50.284;18.860;2023-12-14T05:59:05;50.10;;;21.50;;
62056;SDS011;48016;50.284;18.860;2023-12-14T06:01:31;49.00;;;21.90;;
62056;SDS011;48016;50.284;18.860;2023-12-14T06:03:58;42.10;;;20.00;;
62056;SDS011;48016;50.284;18.860;2023-12-14T06:06:24;47.80;;;20.70;;
62056;SDS011;48016;50.284;18.860;2023-12-14T06:08:51;47.40;;;18.80;;
62056;SDS011;48016;50.284;18.860;2023-12-14T06:11:17;45.40;;;19.10;;
62056;SDS011;48016;50.284;18.860;2023-12-14T06:13:44;44.00;;;20.90;;
62056;SDS011;48016;50.284;18.860;2023-12-14T06:16:11;49.50;;;22.40;;
62056;SDS011;48016;50.284;18.860;2023-12-14T06:21:10;55.60;;;23.60;;
62056;SDS011;48016;50.284;18.860;2023-12-14T06:23:38;51.90;;;23.20;;
62056;SDS011;48016;50.284;18.860;2023-12-14T06:26:04;49.00;;;23.40;;
62056;SDS011;48016;50.284;18.860;2023-12-14T06:28:31;52.60;;;23.30;;
62056;SDS011;48016;50.284;18.860;2023-12-14T06:30:57;52.30;;;24.50;;
62056;SDS011;48016;50.284;18.860;2023-12-14T06:33:24;54.50;;;24.80;;
62056;SDS011;48016;50.284;18.860;2023-12-14T06:35:51;53.40;;;21.50;;
62056;SDS011;48016;50.284;18.860;2023-12-14T06:38:18;49.30;;;20.80;;
62056;SDS011;48016;50.284;18.860;2023-12-14T06:40:44;50.20;;;22.30;;
62056;SDS011;48016;50.284;18.860;2023-12-14T06:43:11;42.10;;;21.30;;
62056;SDS011;48016;50.284;18.860;2023-12-14T06:45:37;47.30;;;20.60;;
62056;SDS011;48016;50.284;18.860;2023-12-14T06:48:04;45.80;;;20.50;;
62056;SDS011;48016;50.284;18.860;2023-12-14T06:50:31;48.20;;;21.70;;
62056;SDS011;48016;50.284;18.860;2023-12-14T06:52:57;50.00;;;23.10;;
62056;SDS011;48016;50.284;18.860;2023-12-14T06:55:24;46.50;;;21.80;;
62056;SDS011;48016;50.284;18.860;2023-12-14T06:57:51;45.50;;;21.50;;
62056;SDS011;48016;50.284;18.860;2023-12-14T07:00:17;47.10;;;23.10;;
62056;SDS011;48016;50.284;18.860;2023-12-14T07:02:44;45.90;;;21.40;;
62056;SDS011;48016;50.284;18.860;2023-12-14T07:05:11;42.90;;;20.80;;
62056;SDS011;48016;50.284;18.860;2023-12-14T07:07:37;53.70;;;25.20;;
62056;SDS011;48016;50.284;18.860;2023-12-14T07:10:04;49.00;;;26.00;;
62056;SDS011;48016;50.284;18.860;2023-12-14T07:12:31;56.40;;;27.20;;
62056;SDS011;48016;50.284;18.860;2023-12-14T07:14:58;54.30;;;26.50;;
62056;SDS011;48016;50.284;18.860;2023-12-14T07:17:24;55.40;;;26.40;;
62056;SDS011;48016;50.284;18.860;2023-12-14T07:19:51;54.60;;;24.40;;
62056;SDS011;48016;50.284;18.860;2023-12-14T07:22:17;53.40;;;26.20;;
62056;SDS011;48016;50.284;18.860;2023-12-14T07:24:44;53.20;;;25.70;;
62056;SDS011;48016;50.284;18.860;2023-12-14T07:27:11;59.60;;;25.90;;
62056;SDS011;48016;50.284;18.860;2023-12-14T07:29:37;50.10;;;23.30;;
62056;SDS011;48016;50.284;18.860;2023-12-14T07:32:04;47.90;;;22.30;;
62056;SDS011;48016;50.284;18.860;2023-12-14T07:34:31;43.70;;;20.50;;
62056;SDS011;48016;50.284;18.860;2023-12-14T07:36:57;41.30;;;19.50;;
62056;SDS011;48016;50.284;18.860;2023-12-14T07:39:24;44.20;;;20.40;;
62056;SDS011;48016;50.284;18.860;2023-12-14T07:41:50;44.70;;;20.70;;
62056;SDS011;48016;50.284;18.860;2023-12-14T07:44:17;49.40;;;21.50;;
62056;SDS011;48016;50.284;18.860;2023-12-14T07:46:43;47.90;;;21.20;;
62056;SDS011;48016;50.284;18.860;2023-12-14T07:49:10;45.00;;;21.70;;
62056;SDS011;48016;50.284;18.860;2023-12-14T07:51:36;47.70;;;22.20;;
62056;SDS011;48016;50.284;18.860;2023-12-14T07:54:03;45.00;;;20.10;;
62056;SDS011;48016;50.284;18.860;2023-12-14T07:56:30;42.20;;;20.40;;
62056;SDS011;48016;50.284;18.860;2023-12-14T07:58:59;47.80;;;20.70;;
62056;SDS011;48016;50.284;18.860;2023-12-14T08:01:25;46.90;;;21.30;;
62056;SDS011;48016;50.284;18.860;2023-12-14T08:03:52;47.90;;;22.20;;
62056;SDS011;48016;50.284;18.860;2023-12-14T08:06:18;44.50;;;21.40;;
62056;SDS011;48016;50.284;18.860;2023-12-14T08:08:45;49.10;;;21.50;;
62056;SDS011;48016;50.284;18.860;2023-12-14T08:11:11;47.40;;;21.00;;
62056;SDS011;48016;50.284;18.860;2023-12-14T08:13:38;56.50;;;24.50;;
62056;SDS011;48016;50.284;18.860;2023-12-14T08:16:04;52.00;;;22.40;;
62056;SDS011;48016;50.284;18.860;2023-12-14T08:18:31;52.10;;;21.50;;
62056;SDS011;48016;50.284;18.860;2023-12-14T08:20:58;49.80;;;22.80;;
62056;SDS011;48016;50.284;18.860;2023-12-14T08:23:24;45.90;;;23.10;;
62056;SDS011;48016;50.284;18.860;2023-12-14T08:25:53;51.80;;;23.80;;
62056;SDS011;48016;50.284;18.860;2023-12-14T08:28:23;56.00;;;23.80;;
62056;SDS011;48016;50.284;18.860;2023-12-14T08:30:50;55.10;;;24.20;;
62056;SDS011;48016;50.284;18.860;2023-12-14T08:33:17;55.10;;;24.90;;
62056;SDS011;48016;50.284;18.860;2023-12-14T08:35:43;50.80;;;24.30;;
62056;SDS011;48016;50.284;18.860;2023-12-14T08:38:10;47.30;;;21.90;;
62056;SDS011;48016;50.284;18.860;2023-12-14T08:40:37;50.80;;;22.60;;
62056;SDS011;48016;50.284;18.860;2023-12-14T08:43:05;44.50;;;22.30;;
62056;SDS011;48016;50.284;18.860;2023-12-14T08:45:32;46.50;;;20.80;;
62056;SDS011;48016;50.284;18.860;2023-12-14T08:47:59;44.30;;;19.50;;
62056;SDS011;48016;50.284;18.860;2023-12-14T08:50:25;46.10;;;20.60;;
62056;SDS011;48016;50.284;18.860;2023-12-14T08:52:52;44.80;;;18.30;;
62056;SDS011;48016;50.284;18.860;2023-12-14T08:55:19;42.60;;;20.20;;
62056;SDS011;48016;50.284;18.860;2023-12-14T08:57:46;38.80;;;18.60;;
62056;SDS011;48016;50.284;18.860;2023-12-14T09:00:12;43.30;;;20.30;;
62056;SDS011;48016;50.284;18.860;2023-12-14T09:02:40;39.50;;;19.30;;
62056;SDS011;48016;50.284;18.860;2023-12-14T09:05:06;40.30;;;19.00;;
62056;SDS011;48016;50.284;18.860;2023-12-14T09:07:33;39.00;;;19.00;;
62056;SDS011;48016;50.284;18.860;2023-12-14T09:10:00;46.20;;;20.30;;
62056;SDS011;48016;50.284;18.860;2023-12-14T09:12:26;41.80;;;20.00;;
62056;SDS011;48016;50.284;18.860;2023-12-14T09:14:53;37.40;;;16.90;;
62056;SDS011;48016;50.284;18.860;2023-12-14T09:17:20;39.80;;;18.70;;
62056;SDS011;48016;50.284;18.860;2023-12-14T09:19:46;37.10;;;17.10;;
62056;SDS011;48016;50.284;18.860;2023-12-14T09:22:13;37.20;;;18.30;;
62056;SDS011;48016;50.284;18.860;2023-12-14T09:24:39;34.80;;;17.30;;
62056;SDS011;48016;50.284;18.860;2023-12-14T09:27:06;34.60;;;18.40;;
62056;SDS011;48016;50.284;18.860;2023-12-14T09:29:33;37.00;;;17.30;;
62056;SDS011;48016;50.284;18.860;2023-12-14T09:31:59;33.50;;;16.70;;
62056;SDS011;48016;50.284;18.860;2023-12-14T09:34:26;35.30;;;17.70;;
62056;SDS011;48016;50.284;18.860;2023-12-14T09:36:52;38.20;;;18.00;;
62056;SDS011;48016;50.284;18.860;2023-12-14T09:39:19;35.70;;;18.60;;
62056;SDS011;48016;50.284;18.860;2023-12-14T09:41:47;32.90;;;16.90;;
62056;SDS011;48016;50.284;18.860;2023-12-14T09:44:16;34.30;;;16.50;;
62056;SDS011;48016;50.284;18.860;2023-12-14T09:46:43;34.70;;;17.00;;
62056;SDS011;48016;50.284;18.860;2023-12-14T09:49:15;35.30;;;17.80;;
62056;SDS011;48016;50.284;18.860;2023-12-14T09:51:42;33.20;;;17.90;;
62056;SDS011;48016;50.284;18.860;2023-12-14T09:54:08;35.00;;;17.40;;
62056;SDS011;48016;50.284;18.860;2023-12-14T09:56:35;33.20;;;17.30;;
62056;SDS011;48016;50.284;18.860;2023-12-14T09:59:11;34.20;;;17.40;;
62056;SDS011;48016;50.284;18.860;2023-12-14T10:01:38;30.60;;;16.10;;
62056;SDS011;48016;50.284;18.860;2023-12-14T10:04:07;34.00;;;16.60;;
62056;SDS011;48016;50.284;18.860;2023-12-14T10:06:35;35.00;;;16.70;;
62056;SDS011;48016;50.284;18.860;2023-12-14T10:09:01;33.00;;;16.60;;
62056;SDS011;48016;50.284;18.860;2023-12-14T10:11:28;35.30;;;17.50;;
62056;SDS011;48016;50.284;18.860;2023-12-14T10:13:55;27.10;;;15.60;;
62056;SDS011;48016;50.284;18.860;2023-12-14T10:16:31;32.60;;;15.80;;
62056;SDS011;48016;50.284;18.860;2023-12-14T10:18:59;31.20;;;16.10;;
62056;SDS011;48016;50.284;18.860;2023-12-14T10:21:26;30.50;;;15.70;;
62056;SDS011;48016;50.284;18.860;2023-12-14T10:26:24;31.80;;;15.00;;
62056;SDS011;48016;50.284;18.860;2023-12-14T10:28:52;29.80;;;14.80;;
62056;SDS011;48016;50.284;18.860;2023-12-14T10:31:19;35.30;;;16.70;;
62056;SDS011;48016;50.284;18.860;2023-12-14T10:33:46;33.60;;;16.20;;
62056;SDS011;48016;50.284;18.860;2023-12-14T10:36:14;29.70;;;16.00;;
62056;SDS011;48016;50.284;18.860;2023-12-14T10:38:44;36.10;;;17.40;;
62056;SDS011;48016;50.284;18.860;2023-12-14T10:41:14;35.50;;;18.00;;
62056;SDS011;48016;50.284;18.860;2023-12-14T10:43:43;34.80;;;18.30;;
62056;SDS011;48016;50.284;18.860;2023-12-14T10:46:13;37.30;;;18.00;;
62056;SDS011;48016;50.284;18.860;2023-12-14T10:48:40;37.90;;;19.20;;
62056;SDS011;48016;50.284;18.860;2023-12-14T10:51:13;38.60;;;18.80;;
62056;SDS011;48016;50.284;18.860;2023-12-14T10:53:41;36.50;;;17.30;;
62056;SDS011;48016;50.284;18.860;2023-12-14T10:56:13;35.00;;;17.20;;
62056;SDS011;48016;50.284;18.860;2023-12-14T10:58:56;35.60;;;17.80;;
62056;SDS011;48016;50.284;18.860;2023-12-14T11:01:24;40.90;;;17.70;;
62056;SDS011;48016;50.284;18.860;2023-12-14T11:03:53;37.10;;;16.30;;
62056;SDS011;48016;50.284;18.860;2023-12-14T11:09:04;34.00;;;16.80;;
62056;SDS011;48016;50.284;18.860;2023-12-14T11:11:43;36.10;;;16.90;;
62056;SDS011;48016;50.284;18.860;2023-12-14T11:14:30;35.80;;;18.10;;
62056;SDS011;48016;50.284;18.860;2023-12-14T11:17:01;37.10;;;16.30;;
62056;SDS011;48016;50.284;18.860;2023-12-14T11:19:32;33.10;;;15.90;;
62056;SDS011;48016;50.284;18.860;2023-12-14T11:22:09;30.80;;;16.00;;
62056;SDS011;48016;50.284;18.860;2023-12-14T11:24:42;32.20;;;16.40;;
62056;SDS011;48016;50.284;18.860;2023-12-14T11:27:11;37.90;;;16.80;;
62056;SDS011;48016;50.284;18.860;2023-12-14T11:29:38;38.50;;;18.30;;
62056;SDS011;48016;50.284;18.860;2023-12-14T11:32:07;36.00;;;17.30;;
62056;SDS011;48016;50.284;18.860;2023-12-14T11:34:34;36.60;;;17.00;;
62056;SDS011;48016;50.284;18.860;2023-12-14T11:37:01;35.30;;;16.30;;
62056;SDS011;48016;50.284;18.860;2023-12-14T11:39:30;36.50;;;17.50;;
62056;SDS011;48016;50.284;18.860;2023-12-14T11:42:01;38.80;;;19.00;;
62056;SDS011;48016;50.284;18.860;2023-12-14T11:44:29;37.10;;;17.90;;
62056;SDS011;48016;50.284;18.860;2023-12-14T11:46:56;37.50;;;19.50;;
62056;SDS011;48016;50.284;18.860;2023-12-14T11:49:26;41.80;;;19.60;;
62056;SDS011;48016;50.284;18.860;2023-12-14T11:51:56;42.20;;;18.90;;
62056;SDS011;48016;50.284;18.860;2023-12-14T11:54:23;40.10;;;18.40;;
62056;SDS011;48016;50.284;18.860;2023-12-14T11:56:50;38.00;;;18.20;;
62056;SDS011;48016;50.284;18.860;2023-12-14T11:59:17;38.20;;;17.40;;
62056;SDS011;48016;50.284;18.860;2023-12-14T12:01:57;39.70;;;19.00;;
62056;SDS011;48016;50.284;18.860;2023-12-14T12:04:25;37.50;;;16.80;;
62056;SDS011;48016;50.284;18.860;2023-12-14T12:07:02;32.50;;;15.20;;
62056;SDS011;48016;50.284;18.860;2023-12-14T12:12:01;34.20;;;17.30;;
62056;SDS011;48016;50.284;18.860;2023-12-14T12:14:31;34.30;;;17.00;;
62056;SDS011;48016;50.284;18.860;2023-12-14T12:16:58;31.10;;;17.00;;
62056;SDS011;48016;50.284;18.860;2023-12-14T12:19:24;30.30;;;14.60;;
62056;SDS011;48016;50.284;18.860;2023-12-14T12:21:51;30.60;;;17.20;;
62056;SDS011;48016;50.284;18.860;2023-12-14T12:24:18;30.10;;;15.80;;
62056;SDS011;48016;50.284;18.860;2023-12-14T12:26:44;28.10;;;15.00;;
62056;SDS011;48016;50.284;18.860;2023-12-14T12:29:11;27.00;;;14.00;;
62056;SDS011;48016;50.284;18.860;2023-12-14T12:31:38;23.50;;;12.40;;
62056;SDS011;48016;50.284;18.860;2023-12-14T12:34:06;25.10;;;14.00;;
62056;SDS011;48016;50.284;18.860;2023-12-14T12:36:32;20.90;;;12.20;;
62056;SDS011;48016;50.284;18.860;2023-12-14T12:38:59;24.30;;;13.40;;
62056;SDS011;48016;50.284;18.860;2023-12-14T12:41:26;24.00;;;13.30;;
62056;SDS011;48016;50.284;18.860;2023-12-14T12:43:52;26.20;;;14.90;;
62056;SDS011;48016;50.284;18.860;2023-12-14T12:46:19;27.50;;;15.40;;
62056;SDS011;48016;50.284;18.860;2023-12-14T12:48:45;28.20;;;14.70;;
62056;SDS011;48016;50.284;18.860;2023-12-14T12:51:13;27.30;;;14.20;;
62056;SDS011;48016;50.284;18.860;2023-12-14T12:53:39;25.00;;;13.30;;
62056;SDS011;48016;50.284;18.860;2023-12-14T12:56:06;25.60;;;13.90;;
62056;SDS011;48016;50.284;18.860;2023-12-14T12:58:32;28.70;;;12.90;;
62056;SDS011;48016;50.284;18.860;2023-12-14T13:00:59;26.70;;;13.80;;
62056;SDS011;48016;50.284;18.860;2023-12-14T13:03:26;30.00;;;13.60;;
62056;SDS011;48016;50.284;18.860;2023-12-14T13:05:52;32.30;;;14.20;;
62056;SDS011;48016;50.284;18.860;2023-12-14T13:08:19;29.40;;;15.00;;
62056;SDS011;48016;50.284;18.860;2023-12-14T13:10:45;26.30;;;13.00;;
62056;SDS011;48016;50.284;18.860;2023-12-14T13:13:13;30.40;;;14.20;;
62056;SDS011;48016;50.284;18.860;2023-12-14T13:15:39;27.50;;;14.10;;
62056;SDS011;48016;50.284;18.860;2023-12-14T13:18:06;32.00;;;15.10;;
62056;SDS011;48016;50.284;18.860;2023-12-14T13:20:32;26.90;;;14.50;;
62056;SDS011;48016;50.284;18.860;2023-12-14T13:22:59;29.50;;;13.80;;
62056;SDS011;48016;50.284;18.860;2023-12-14T13:25:26;30.20;;;16.10;;
62056;SDS011;48016;50.284;18.860;2023-12-14T13:27:52;30.00;;;14.90;;
62056;SDS011;48016;50.284;18.860;2023-12-14T13:30:19;32.40;;;15.30;;
62056;SDS011;48016;50.284;18.860;2023-12-14T13:32:48;37.40;;;17.30;;
62056;SDS011;48016;50.284;18.860;2023-12-14T13:35:15;31.60;;;15.40;;
62056;SDS011;48016;50.284;18.860;2023-12-14T13:37:41;32.30;;;14.70;;
62056;SDS011;48016;50.284;18.860;2023-12-14T13:40:08;28.70;;;14.20;;
62056;SDS011;48016;50.284;18.860;2023-12-14T13:42:36;31.20;;;14.70;;
62056;SDS011;48016;50.284;18.860;2023-12-14T13:45:03;30.70;;;16.40;;
62056;SDS011;48016;50.284;18.860;2023-12-14T13:47:29;33.00;;;16.40;;
62056;SDS011;48016;50.284;18.860;2023-12-14T13:49:56;27.40;;;15.30;;
62056;SDS011;48016;50.284;18.860;2023-12-14T13:52:23;33.40;;;16.80;;
62056;SDS011;48016;50.284;18.860;2023-12-14T13:54:50;27.10;;;14.80;;
62056;SDS011;48016;50.284;18.860;2023-12-14T13:57:16;29.90;;;15.20;;
62056;SDS011;48016;50.284;18.860;2023-12-14T13:59:43;32.20;;;16.40;;
62056;SDS011;48016;50.284;18.860;2023-12-14T14:02:10;28.90;;;16.60;;
62056;SDS011;48016;50.284;18.860;2023-12-14T14:07:04;30.70;;;15.90;;
62056;SDS011;48016;50.284;18.860;2023-12-14T14:09:30;29.50;;;15.20;;
62056;SDS011;48016;50.284;18.860;2023-12-14T14:11:59;32.20;;;16.20;;
62056;SDS011;48016;50.284;18.860;2023-12-14T14:14:25;32.60;;;16.80;;
62056;SDS011;48016;50.284;18.860;2023-12-14T14:16:52;29.90;;;15.50;;
62056;SDS011;48016;50.284;18.860;2023-12-14T14:19:18;33.60;;;16.60;;
62056;SDS011;48016;50.284;18.860;2023-12-14T14:21:45;32.30;;;16.80;;
62056;SDS011;48016;50.284;18.860;2023-12-14T14:24:12;35.70;;;18.10;;
62056;SDS011;48016;50.284;18.860;2023-12-14T14:26:39;34.10;;;17.60;;